Impacts METAR Board
IDs:

KMDW - Chicago/Midway Intl, IL, US

Updated at: 0400 UTC 22 Apr 2018
Potential Impact None Slight Moderate High
Time 21/16Z 21/17Z 21/18Z 21/19Z 21/20Z 21/21Z 21/22Z 21/23Z 22/00Z 22/01Z 22/02Z 22/03Z 22/04Z
Temp50 51 48 49 50 52 53 50 48 47 46 47 47
Dewpt23 23 26 27 27 26 23 20 18 17 19 19 17
Altim30.46 30.44 30.42 30.43 30.42 30.39 30.37 30.37 30.37 30.37 30.38 30.40 30.39
VIS10 10 10 10 10 10 10 10 10 10 10 10 10
CIG80 90 70 55 65 150 250 180 180 180 160 140 140
CoverOVCOVCOVCOVCOVCOVCBKNBKNBKNBKNOVCOVCOVC
FltCatVFRVFRVFRVFRVFRVFRVFRVFRVFRVFRVFRVFRVFR
WX--------------------------
WDir006090505080905080508060
WSpd0 0 8 4 4 8 9 8 7 7 8 4 7
WGst-- -- -- -- -- -- -- -- -- -- -- -- --
Raw hourly METARs
KMDW 211553Z 00000KT 10SM BKN080 OVC250 10/M05 A3046 RMK AO2 SLP318 T01001050
KMDW 211653Z 00000KT 10SM BKN090 OVC250 11/M05 A3044 RMK AO2 SLP311 T01061050
KMDW 211753Z 06008KT 10SM BKN070 OVC250 09/M03 A3042 RMK AO2 SLP306 T00891033 10111 20072 58014
KMDW 211853Z 09004KT 10SM BKN055 BKN070 OVC200 09/M03 A3043 RMK AO2 SLP310 T00941028
KMDW 211953Z 05004KT 10SM BKN065 OVC090 10/M03 A3042 RMK AO2 SLP307 T01001028
KMDW 212053Z 05008KT 10SM SCT060 BKN150 OVC250 11/M03 A3039 RMK AO2 SLP296 T01111033 58009
KMDW 212153Z 08009KT 10SM FEW060 SCT180 BKN250 12/M05 A3037 RMK AO2 SLP289 T01171050
KMDW 212253Z 09008KT 10SM FEW060 BKN180 BKN250 10/M07 A3037 RMK AO2 SLP288 T01001067
KMDW 212353Z 05007KT 10SM BKN180 BKN250 09/M08 A3037 RMK AO2 SLP290 T00891078 10117 20089 55007
KMDW 220053Z 08007KT 10SM SCT140 BKN180 BKN250 08/M08 A3037 RMK AO2 SLP289 T00831083
KMDW 220153Z 05008KT 10SM BKN160 OVC250 08/M07 A3038 RMK AO2 SLP292 T00781072
KMDW 220253Z 08004KT 10SM BKN140 OVC200 08/M07 A3040 RMK AO2 SLP298 VIRGA T00831072 53009
KMDW 220353Z 06007KT 10SM BKN140 OVC200 08/M08 A3039 RMK AO2 SLP294 T00831083



Page loaded:  04:20 UTC  |   09:20 PM Pacific  |   10:20 PM Mountain  |   11:20 PM Central  |   12:20 AM Eastern

 

ADVISORIES

FORECASTS

FORECASTS

OBSERVATIONS

USER TOOLS

ABOUT US